Time,TemperatureF,DewpointF,PressureIn,WindDirection,WindDirectionDegrees,WindSpeedMPH,WindSpeedGustMPH,Humidity,HourlyPrecipIn,Conditions,Clouds,dailyrainin,SolarRadiationWatts/m^2,SoftwareType,DateUTC
2013-02-02 13:36:00,-1.8,-5.7,31.57,SSE,156,1.0,3.0,83,0.00,,,0.00,297,Wunderground v.1.15,2013-02-02 19:36:00,
2013-02-02 13:40:00,-1.6,-5.5,31.56,South,178,1.0,2.0,83,0.00,,,0.00,269,Wunderground v.1.15,2013-02-02 19:40:00,
2013-02-02 13:44:00,-1.3,-5.5,31.56,SSE,163,1.0,2.0,82,0.00,,,0.00,304,Wunderground v.1.15,2013-02-02 19:44:00,
2013-02-02 13:50:00,-0.9,-5.1,31.55,South,171,1.0,2.0,82,0.00,,,0.00,441,Wunderground v.1.15,2013-02-02 19:50:00,
2013-02-02 13:55:00,-0.1,-4.0,31.55,SSE,151,2.0,2.0,83,0.00,,,0.00,454,Wunderground v.1.15,2013-02-02 19:55:00,
2013-02-02 14:05:00,1.1,-3.1,31.54,SSE,167,2.0,2.0,82,0.00,,,0.00,329,Wunderground v.1.15,2013-02-02 20:05:00,
2013-02-02 14:10:00,1.3,-3.2,31.53,South,177,2.0,5.0,81,0.00,,,0.00,318,Wunderground v.1.15,2013-02-02 20:10:00,
2013-02-02 14:15:00,1.3,-3.4,31.53,South,177,1.0,5.0,80,0.00,,,0.00,287,Wunderground v.1.15,2013-02-02 20:15:00,
2013-02-02 14:20:00,1.1,-3.6,31.53,ESE,116,2.0,2.0,80,0.00,,,0.00,292,Wunderground v.1.15,2013-02-02 20:20:00,
2013-02-02 14:25:00,0.9,-3.8,31.52,SE,128,2.0,2.0,80,0.00,,,0.00,265,Wunderground v.1.15,2013-02-02 20:25:00,
2013-02-02 14:30:00,0.8,-3.7,31.52,South,183,2.0,2.0,81,0.00,,,0.00,329,Wunderground v.1.15,2013-02-02 20:30:00,
2013-02-02 14:40:00,1.4,-3.1,31.53,South,170,2.0,2.0,81,0.00,,,0.00,478,Wunderground v.1.15,2013-02-02 20:40:00,
2013-02-02 14:50:00,2.2,-2.3,31.53,South,184,2.0,6.0,81,0.00,,,0.00,264,Wunderground v.1.15,2013-02-02 20:50:00,
2013-02-02 14:55:00,2.1,-2.4,31.53,South,181,2.0,6.0,81,0.00,,,0.00,209,Wunderground v.1.15,2013-02-02 20:55:00,
2013-02-02 15:00:00,1.8,-2.9,31.53,South,173,2.0,2.0,80,0.00,,,0.00,183,Wunderground v.1.15,2013-02-02 21:00:00,
2013-02-02 15:10:00,1.1,-3.6,31.54,SSW,195,3.0,3.0,80,0.00,,,0.00,171,Wunderground v.1.15,2013-02-02 21:10:00,
2013-02-02 15:15:00,0.8,-3.7,31.53,South,185,3.0,6.0,81,0.00,,,0.00,178,Wunderground v.1.15,2013-02-02 21:15:00,
2013-02-02 15:20:00,0.6,-3.9,31.53,SSW,194,3.0,6.0,81,0.00,,,0.00,174,Wunderground v.1.15,2013-02-02 21:20:00,
2013-02-02 15:25:00,0.5,-3.7,31.53,SW,216,4.0,6.0,82,0.00,,,0.00,155,Wunderground v.1.15,2013-02-02 21:25:00,
2013-02-02 15:30:00,0.3,-3.9,31.54,South,189,4.0,6.0,82,0.00,,,0.00,149,Wunderground v.1.15,2013-02-02 21:30:00,
2013-02-02 15:35:00,0.2,-4.0,31.54,South,184,4.0,6.0,82,0.00,,,0.00,134,Wunderground v.1.15,2013-02-02 21:35:00,
2013-02-02 15:40:00,0.2,-3.7,31.55,South,184,4.0,4.0,83,0.00,,,0.00,125,Wunderground v.1.15,2013-02-02 21:40:00,
2013-02-02 15:45:00,0.2,-3.7,31.55,SSW,194,4.0,6.0,83,0.00,,,0.00,113,Wunderground v.1.15,2013-02-02 21:45:00,
2013-02-02 15:50:00,0.1,-3.8,31.55,SSW,192,3.0,6.0,83,0.00,,,0.00,104,Wunderground v.1.15,2013-02-02 21:50:00,
2013-02-02 15:55:00,0.1,-3.8,31.55,South,188,3.0,6.0,83,0.00,,,0.00,97,Wunderground v.1.15,2013-02-02 21:55:00,
2013-02-02 16:00:00,0.1,-3.8,31.56,SSW,203,3.0,3.0,83,0.00,,,0.00,90,Wunderground v.1.15,2013-02-02 22:00:00,
2013-02-02 16:05:00,0.2,-3.5,31.56,SSW,198,2.0,6.0,84,0.00,,,0.00,86,Wunderground v.1.15,2013-02-02 22:05:00,
2013-02-02 16:10:00,0.2,-3.5,31.57,SW,219,2.0,6.0,84,0.00,,,0.00,79,Wunderground v.1.15,2013-02-02 22:10:00,
2013-02-02 16:15:00,0.3,-3.4,31.57,SSW,196,3.0,6.0,84,0.00,,,0.00,74,Wunderground v.1.15,2013-02-02 22:15:00,
2013-02-02 16:20:00,0.4,-3.3,31.57,South,186,3.0,6.0,84,0.00,,,0.00,69,Wunderground v.1.15,2013-02-02 22:20:00,
2013-02-02 16:25:00,0.5,-3.2,31.57,SSW,201,2.0,6.0,84,0.00,,,0.00,69,Wunderground v.1.15,2013-02-02 22:25:00,
2013-02-02 16:35:00,0.6,-3.1,31.57,South,186,3.0,3.0,84,0.00,,,0.00,60,Wunderground v.1.15,2013-02-02 22:35:00,
2013-02-02 16:45:00,0.6,-3.1,31.57,South,190,3.0,6.0,84,0.00,,,0.00,42,Wunderground v.1.15,2013-02-02 22:45:00,
2013-02-02 16:50:00,0.5,-3.2,31.57,SSW,202,2.0,2.0,84,0.00,,,0.00,33,Wunderground v.1.15,2013-02-02 22:50:00,
2013-02-02 17:00:00,0.5,-3.2,31.56,SSW,194,2.0,2.0,84,0.00,,,0.00,26,Wunderground v.1.15,2013-02-02 23:00:00,
2013-02-02 17:05:00,0.5,-3.2,31.57,SSW,194,2.0,6.0,84,0.00,,,0.00,26,Wunderground v.1.15,2013-02-02 23:05:00,
2013-02-02 17:10:00,0.5,-2.9,31.57,SSW,193,1.0,1.0,85,0.00,,,0.00,18,Wunderground v.1.15,2013-02-02 23:10:00,
2013-02-02 17:15:00,0.5,-2.9,31.57,SSW,193,1.0,6.0,85,0.00,,,0.00,9,Wunderground v.1.15,2013-02-02 23:15:00,
2013-02-02 17:20:00,0.5,-2.9,31.57,SSW,193,1.0,1.0,85,0.00,,,0.00,7,Wunderground v.1.15,2013-02-02 23:20:00,
2013-02-02 17:25:00,0.5,-2.9,31.57,SSW,193,1.0,6.0,85,0.00,,,0.00,5,Wunderground v.1.15,2013-02-02 23:25:00,
2013-02-02 17:30:00,0.5,-2.9,31.57,SSW,193,1.0,6.0,85,0.00,,,0.00,0,Wunderground v.1.15,2013-02-02 23:30:00,
2013-02-02 17:35:00,0.5,-2.9,31.58,SSW,193,1.0,6.0,85,0.00,,,0.00,0,Wunderground v.1.15,2013-02-02 23:35:00,
2013-02-02 17:40:00,0.5,-2.9,31.58,SSW,193,0.0,6.0,85,0.00,,,0.00,0,Wunderground v.1.15,2013-02-02 23:40:00,
2013-02-02 17:45:00,0.5,-2.9,31.58,SSW,193,0.0,6.0,85,0.00,,,0.00,0,Wunderground v.1.15,2013-02-02 23:45:00,
2013-02-02 17:50:00,0.6,-2.8,31.58,SW,215,1.0,1.0,85,0.00,,,0.00,0,Wunderground v.1.15,2013-02-02 23:50:00,
2013-02-02 18:00:00,0.6,-2.6,31.58,SW,231,1.0,6.0,86,0.00,,,0.00,0,Wunderground v.1.15,2013-02-03 00:00:00,
2013-02-02 18:05:00,0.7,-2.5,31.58,SW,232,0.0,6.0,86,0.00,,,0.00,0,Wunderground v.1.15,2013-02-03 00:05:00,
2013-02-02 18:10:00,0.7,-2.5,31.58,SW,231,0.0,6.0,86,0.00,,,0.00,0,Wunderground v.1.15,2013-02-03 00:10:00,
2013-02-02 18:15:00,0.8,-2.4,31.57,SW,232,0.0,6.0,86,0.00,,,0.00,0,Wunderground v.1.15,2013-02-03 00:15:00,
2013-02-02 18:20:00,0.8,-2.4,31.58,West,281,1.0,1.0,86,0.00,,,0.00,0,Wunderground v.1.15,2013-02-03 00:20:00,
2013-02-02 18:25:00,0.9,-2.3,31.58,West,281,1.0,2.0,86,0.00,,,0.00,0,Wunderground v.1.15,2013-02-03 00:25:00,
2013-02-02 18:30:00,0.9,-2.3,31.58,West,280,2.0,6.0,86,0.00,,,0.00,0,Wunderground v.1.15,2013-02-03 00:30:00,
2013-02-02 18:40:00,1.1,-2.1,31.58,West,280,2.0,6.0,86,0.00,,,0.00,0,Wunderground v.1.15,2013-02-03 00:40:00,
2013-02-02 18:45:00,1.1,-2.1,31.58,West,280,2.0,6.0,86,0.00,,,0.00,0,Wunderground v.1.15,2013-02-03 00:45:00,
2013-02-02 18:50:00,1.2,-2.0,31.58,West,280,3.0,3.0,86,0.00,,,0.00,0,Wunderground v.1.15,2013-02-03 00:50:00,
2013-02-02 18:55:00,1.3,-1.9,31.58,West,280,2.0,6.0,86,0.00,,,0.00,0,Wunderground v.1.15,2013-02-03 00:55:00,
2013-02-02 19:00:00,1.4,-1.8,31.58,West,280,2.0,6.0,86,0.00,,,0.00,0,Wunderground v.1.15,2013-02-03 01:00:00,
2013-02-02 19:05:00,1.5,-1.7,31.58,West,280,2.0,6.0,86,0.00,,,0.00,0,Wunderground v.1.15,2013-02-03 01:05:00,
2013-02-02 19:10:00,1.5,-1.7,31.58,West,281,2.0,2.0,86,0.00,,,0.00,0,Wunderground v.1.15,2013-02-03 01:10:00,
2013-02-02 19:15:00,1.6,-1.6,31.58,West,281,2.0,4.0,86,0.00,,,0.00,0,Wunderground v.1.15,2013-02-03 01:15:00,
2013-02-02 19:25:00,1.6,-1.6,31.58,West,281,1.0,6.0,86,0.00,,,0.00,0,Wunderground v.1.15,2013-02-03 01:25:00,
2013-02-02 19:30:00,1.7,-1.5,31.58,West,281,1.0,6.0,86,0.00,,,0.00,0,Wunderground v.1.15,2013-02-03 01:30:00,
2013-02-02 19:35:00,1.7,-1.5,31.58,West,281,1.0,6.0,86,0.00,,,0.00,0,Wunderground v.1.15,2013-02-03 01:35:00,
2013-02-02 19:40:00,1.7,-1.5,31.58,West,281,1.0,6.0,86,0.00,,,0.00,0,Wunderground v.1.15,2013-02-03 01:40:00,
2013-02-02 19:45:00,1.7,-1.5,31.58,West,281,2.0,6.0,86,0.00,,,0.00,0,Wunderground v.1.15,2013-02-03 01:45:00,
2013-02-02 19:50:00,1.8,-1.4,31.57,West,281,2.0,6.0,86,0.00,,,0.00,0,Wunderground v.1.15,2013-02-03 01:50:00,
2013-02-02 19:55:00,1.9,-1.3,31.57,West,281,3.0,6.0,86,0.00,,,0.00,0,Wunderground v.1.15,2013-02-03 01:55:00,
2013-02-02 20:00:00,2.0,-1.2,31.57,West,281,3.0,6.0,86,0.00,,,0.00,0,Wunderground v.1.15,2013-02-03 02:00:00,
2013-02-02 20:05:00,2.2,-1.0,31.57,West,281,3.0,6.0,86,0.00,,,0.00,0,Wunderground v.1.15,2013-02-03 02:05:00,
2013-02-02 20:10:00,2.3,-0.9,31.57,West,281,3.0,3.0,86,0.00,,,0.00,0,Wunderground v.1.15,2013-02-03 02:10:00,
2013-02-02 20:15:00,2.4,-0.8,31.57,West,281,3.0,6.0,86,0.00,,,0.00,0,Wunderground v.1.15,2013-02-03 02:15:00,
2013-02-02 20:20:00,2.6,-0.6,31.57,West,281,3.0,6.0,86,0.00,,,0.00,0,Wunderground v.1.15,2013-02-03 02:20:00,
2013-02-02 20:25:00,2.8,-0.4,31.57,West,281,3.0,6.0,86,0.00,,,0.00,0,Wunderground v.1.15,2013-02-03 02:25:00,
2013-02-02 20:30:00,3.0,-0.2,31.57,WNW,298,4.0,7.0,86,0.00,,,0.00,0,Wunderground v.1.15,2013-02-03 02:30:00,
2013-02-02 20:35:00,3.3,0.1,31.57,WNW,287,5.0,7.0,86,0.00,,,0.00,0,Wunderground v.1.15,2013-02-03 02:35:00,
2013-02-02 20:45:00,3.8,0.5,31.57,NW,304,5.0,6.0,86,0.00,,,0.00,0,Wunderground v.1.15,2013-02-03 02:45:00,
2013-02-02 20:50:00,3.8,0.3,31.57,West,279,5.0,6.0,85,0.00,,,0.00,0,Wunderground v.1.15,2013-02-03 02:50:00,
2013-02-02 20:55:00,3.9,0.4,31.57,North,355,5.0,6.0,85,0.00,,,0.00,0,Wunderground v.1.15,2013-02-03 02:55:00,
2013-02-02 21:00:00,4.0,0.5,31.57,WNW,299,4.0,4.0,85,0.00,,,0.00,0,Wunderground v.1.15,2013-02-03 03:00:00,
2013-02-02 21:05:00,4.0,0.5,31.57,WNW,297,4.0,6.0,85,0.00,,,0.00,0,Wunderground v.1.15,2013-02-03 03:05:00,
2013-02-02 21:10:00,4.0,0.5,31.57,WNW,286,4.0,4.0,85,0.00,,,0.00,0,Wunderground v.1.15,2013-02-03 03:10:00,
2013-02-02 21:20:00,4.0,0.5,31.57,West,276,3.0,6.0,85,0.00,,,0.00,0,Wunderground v.1.15,2013-02-03 03:20:00,
2013-02-02 21:25:00,3.9,0.4,31.56,WNW,298,3.0,6.0,85,0.00,,,0.00,0,Wunderground v.1.15,2013-02-03 03:25:00,
2013-02-02 21:30:00,3.9,0.4,31.57,WNW,296,3.0,6.0,85,0.00,,,0.00,0,Wunderground v.1.15,2013-02-03 03:30:00,
2013-02-02 21:35:00,3.9,0.4,31.57,NW,315,3.0,6.0,85,0.00,,,0.00,0,Wunderground v.1.15,2013-02-03 03:35:00,
2013-02-02 21:40:00,4.0,0.5,31.57,WNW,293,4.0,4.0,85,0.00,,,0.00,0,Wunderground v.1.15,2013-02-03 03:40:00,
2013-02-02 21:50:00,4.0,0.5,31.58,NNW,336,4.0,6.0,85,0.00,,,0.00,0,Wunderground v.1.15,2013-02-03 03:50:00,
2013-02-02 21:55:00,4.0,0.5,31.58,WNW,303,4.0,6.0,85,0.00,,,0.00,0,Wunderground v.1.15,2013-02-03 03:55:00,
2013-02-02 22:00:00,4.0,0.5,31.58,NW,306,4.0,4.0,85,0.00,,,0.00,0,Wunderground v.1.15,2013-02-03 04:00:00,
2013-02-02 22:10:00,4.1,0.6,31.58,WNW,302,4.0,6.0,85,0.00,,,0.00,0,Wunderground v.1.15,2013-02-03 04:10:00,
2013-02-02 22:15:00,4.1,0.8,31.58,WNW,300,4.0,6.0,86,0.00,,,0.00,0,Wunderground v.1.15,2013-02-03 04:15:00,
2013-02-02 22:20:00,4.1,0.8,31.58,West,277,4.0,4.0,86,0.00,,,0.00,0,Wunderground v.1.15,2013-02-03 04:20:00,
2013-02-02 22:25:00,4.1,0.8,31.58,WNW,291,3.0,6.0,86,0.00,,,0.00,0,Wunderground v.1.15,2013-02-03 04:25:00,
2013-02-02 22:30:00,4.1,0.8,31.58,WNW,298,3.0,3.0,86,0.00,,,0.00,0,Wunderground v.1.15,2013-02-03 04:30:00,
2013-02-02 22:35:00,4.1,0.8,31.58,West,281,3.0,6.0,86,0.00,,,0.00,0,Wunderground v.1.15,2013-02-03 04:35:00,
2013-02-02 22:45:00,4.1,0.8,31.57,NW,311,3.0,6.0,86,0.00,,,0.00,0,Wunderground v.1.15,2013-02-03 04:45:00,
2013-02-02 22:50:00,4.1,0.8,31.57,NW,310,3.0,3.0,86,0.00,,,0.00,0,Wunderground v.1.15,2013-02-03 04:50:00,
2013-02-02 22:55:00,4.1,0.8,31.57,WNW,287,3.0,6.0,86,0.00,,,0.00,0,Wunderground v.1.15,2013-02-03 04:55:00,
2013-02-02 23:00:00,4.2,0.9,31.57,WNW,292,3.0,3.0,86,0.00,,,0.00,0,Wunderground v.1.15,2013-02-03 05:00:00,
2013-02-02 23:10:00,4.2,0.9,31.57,NW,308,3.0,3.0,86,0.00,,,0.00,0,Wunderground v.1.15,2013-02-03 05:10:00,
2013-02-02 23:15:00,4.3,1.3,31.57,WNW,298,3.0,6.0,87,0.00,,,0.00,0,Wunderground v.1.15,2013-02-03 05:15:00,
2013-02-02 23:20:00,4.3,1.3,31.57,WNW,283,3.0,3.0,87,0.00,,,0.00,0,Wunderground v.1.15,2013-02-03 05:20:00,
2013-02-02 23:25:00,4.4,1.4,31.57,West,277,3.0,6.0,87,0.00,,,0.00,0,Wunderground v.1.15,2013-02-03 05:25:00,
2013-02-02 23:30:00,4.4,1.4,31.57,NW,310,3.0,6.0,87,0.00,,,0.00,0,Wunderground v.1.15,2013-02-03 05:30:00,
2013-02-02 23:35:00,4.4,1.4,31.57,WNW,288,3.0,6.0,87,0.00,,,0.00,0,Wunderground v.1.15,2013-02-03 05:35:00,
2013-02-02 23:40:00,4.4,1.4,31.57,WNW,286,3.0,6.0,87,0.00,,,0.00,0,Wunderground v.1.15,2013-02-03 05:40:00,
2013-02-02 23:45:00,4.4,1.1,31.57,WNW,282,3.0,6.0,86,0.00,,,0.00,0,Wunderground v.1.15,2013-02-03 05:45:00,
2013-02-02 23:50:00,4.4,1.1,31.58,NW,306,3.0,6.0,86,0.00,,,0.00,0,Wunderground v.1.15,2013-02-03 05:50:00,
2013-02-02 23:55:00,4.4,1.1,31.58,WNW,290,3.0,6.0,86,0.00,,,0.00,0,Wunderground v.1.15,2013-02-03 05:55:00,